Ossineke, Michigan
Current Conditions -  °F | °C
As of 11:54 PM on Saturday 25 Oct 2014 (Local Time) from KAPN Reporting Station
Clear Clear  
Wind Chill: 50°   Ceiling: Unl
Heat Index: 50°   Visibility: 10mi
Dew Point: 31°   Wind: 13mph
Humidity: 48%   Direction: 300°WNW
Pressure: 29.7"   Gusts: 23mph
Location:  44.9°N, 83.44°W
Report Text: KAPN 260354Z AUTO 30011G20KT 260V320 10SM CLR 10/M01 A2970 RMK AO2 SLP059 T01001006
Loading
Personal Weather Stations






























Interactive Weather Map
Tropical Storm Tracking
New forecast layout! Learn more

10-Day Weather Forecast

Advertisements
Track Severe Weather on mobile